createdAt,value
2023-04-17T00:01:10.993Z,98264.56
2023-04-17T00:03:44.892Z,98269.66
2023-04-17T00:06:19.064Z,98264.34
2023-04-17T00:08:52.086Z,98259.25
2023-04-17T00:11:25.080Z,98265.00
2023-04-17T00:13:59.456Z,98260.78
2023-04-17T00:16:32.543Z,98256.41
2023-04-17T00:19:05.673Z,98260.13
2023-04-17T00:21:38.772Z,98255.69
2023-04-17T00:24:13.102Z,98258.72
2023-04-17T00:26:46.409Z,98261.59
2023-04-17T00:29:20.764Z,98256.41
2023-04-17T00:31:53.926Z,98260.50
2023-04-17T00:34:27.248Z,98260.38
2023-04-17T00:37:00.401Z,98257.81
2023-04-17T00:39:33.413Z,98256.84
2023-04-17T00:42:06.704Z,98248.41
2023-04-17T00:44:41.153Z,98254.31
2023-04-17T00:47:14.675Z,98249.97
2023-04-17T00:49:47.726Z,98266.25
2023-04-17T00:52:28.778Z,98251.97
2023-04-17T00:55:02.137Z,98248.53
2023-04-17T00:57:35.699Z,98246.66
2023-04-17T01:00:11.837Z,98239.00
2023-04-17T01:02:45.848Z,98239.75
2023-04-17T01:05:19.043Z,98237.13
2023-04-17T01:07:52.417Z,98247.00
2023-04-17T01:10:25.613Z,98241.91
2023-04-17T01:13:05.975Z,98241.81
2023-04-17T01:15:40.347Z,98240.13
2023-04-17T01:18:13.423Z,98239.34
2023-04-17T01:20:46.460Z,98242.69
2023-04-17T01:23:19.527Z,98241.81
2023-04-17T01:25:53.996Z,98240.91
2023-04-17T01:28:27.051Z,98237.47
2023-04-17T01:31:00.158Z,98233.94
2023-04-17T01:33:33.189Z,98240.69
2023-04-17T01:36:07.244Z,98241.47
2023-04-17T01:38:40.952Z,98239.38
2023-04-17T01:41:15.364Z,98240.84
2023-04-17T01:43:48.934Z,98246.69
2023-04-17T01:46:21.979Z,98238.84
2023-04-17T01:48:55.534Z,98242.06
2023-04-17T01:51:28.868Z,98247.16
2023-04-17T01:54:01.922Z,98242.97
2023-04-17T01:56:36.298Z,98246.28
2023-04-17T01:59:09.547Z,98244.59
2023-04-17T02:01:42.684Z,98244.06
2023-04-17T02:04:15.877Z,98244.06
2023-04-17T02:06:48.958Z,98240.50
2023-04-17T02:09:22.014Z,98246.47
2023-04-17T02:11:56.891Z,98241.31
2023-04-17T02:14:31.425Z,98240.63
2023-04-17T02:17:04.464Z,98236.50
2023-04-17T02:19:37.518Z,98233.19
2023-04-17T02:22:10.537Z,98233.28
2023-04-17T02:24:43.569Z,98237.41
2023-04-17T02:27:18.419Z,98236.72
2023-04-17T02:29:51.475Z,98240.94
2023-04-17T02:32:24.584Z,98240.72
2023-04-17T02:34:57.626Z,98242.75
2023-04-17T02:37:30.996Z,98239.09
2023-04-17T02:40:07.137Z,98246.84
2023-04-17T02:42:41.530Z,98245.97
2023-04-17T02:45:14.661Z,98242.50
2023-04-17T02:47:47.730Z,98249.41
2023-04-17T02:50:21.047Z,98246.06
2023-04-17T02:52:54.677Z,98245.31
2023-04-17T02:55:27.711Z,98245.50
2023-04-17T02:58:02.158Z,98243.84
2023-04-17T03:00:35.271Z,98250.16
2023-04-17T03:03:09.394Z,98243.00
2023-04-17T03:05:43.071Z,98252.28
2023-04-17T03:08:16.091Z,98242.88
2023-04-17T03:10:49.168Z,98242.50
2023-04-17T03:13:23.574Z,98242.28
2023-04-17T03:15:56.583Z,98236.44
2023-04-17T03:18:29.673Z,98240.75
2023-04-17T03:21:02.699Z,98238.78
2023-04-17T03:23:35.802Z,98246.22
2023-04-17T03:26:09.049Z,98240.31
2023-04-17T03:28:43.464Z,98235.34
2023-04-17T03:31:16.591Z,98243.66
2023-04-17T03:33:49.656Z,98244.53
2023-04-17T03:36:22.687Z,98243.44
2023-04-17T03:38:55.841Z,98247.19
2023-04-17T03:41:28.977Z,98247.38
2023-04-17T03:44:03.353Z,98245.63
2023-04-17T03:46:36.598Z,98256.03
2023-04-17T03:49:09.817Z,98251.59
2023-04-17T03:51:44.004Z,98254.50
2023-04-17T03:54:17.160Z,98251.06
2023-04-17T03:56:50.238Z,98252.63
2023-04-17T03:59:24.931Z,98258.59
2023-04-17T04:01:58.122Z,98258.59
2023-04-17T04:04:31.399Z,98261.94
2023-04-17T04:07:04.654Z,98260.34
2023-04-17T04:09:37.690Z,98258.50
2023-04-17T04:12:11.383Z,98259.38
2023-04-17T04:14:46.031Z,98260.25
2023-04-17T04:17:19.206Z,98265.34
2023-04-17T04:19:52.324Z,98259.81
2023-04-17T04:22:25.759Z,98264.91
2023-04-17T04:24:59.329Z,98260.59
2023-04-17T04:27:33.165Z,98265.91
2023-04-17T04:30:10.476Z,98264.91
2023-04-17T04:32:43.629Z,98265.00
2023-04-17T04:35:16.835Z,98273.56
2023-04-17T04:37:49.922Z,98270.44
2023-04-17T04:40:24.663Z,98270.22
2023-04-17T04:42:58.566Z,98258.25
2023-04-17T04:45:32.943Z,98272.75
2023-04-17T04:48:06.296Z,98266.66
2023-04-17T04:50:39.400Z,98271.22
2023-04-17T04:53:12.657Z,98265.13
2023-04-17T04:55:45.805Z,98271.88
2023-04-17T04:58:18.827Z,98276.84
2023-04-17T05:00:53.416Z,98277.72
2023-04-17T05:03:26.604Z,98277.06
2023-04-17T05:06:00.044Z,98281.41
2023-04-17T05:08:34.174Z,98285.72
2023-04-17T05:11:07.470Z,98286.72
2023-04-17T05:13:40.506Z,98282.59
2023-04-17T05:16:14.897Z,98275.94
2023-04-17T05:18:48.302Z,98284.38
2023-04-17T05:21:21.502Z,98292.13
2023-04-17T05:23:54.668Z,98293.03
2023-04-17T05:26:27.671Z,98293.03
2023-04-17T05:29:00.825Z,98292.34
2023-04-17T05:31:35.273Z,98294.78
2023-04-17T05:34:08.341Z,98293.03
2023-04-17T05:36:41.427Z,98293.47
2023-04-17T05:39:14.498Z,98300.31
2023-04-17T05:41:47.546Z,98293.47
2023-04-17T05:44:20.654Z,98293.56
2023-04-17T05:46:57.161Z,98297.97
2023-04-17T05:49:30.563Z,98296.97
2023-04-17T05:52:03.677Z,98301.63
2023-04-17T05:54:36.698Z,98303.41
2023-04-17T05:57:09.689Z,98299.19
2023-04-17T05:59:43.193Z,98304.97
2023-04-17T06:02:18.154Z,98300.06
2023-04-17T06:04:51.884Z,98303.41
2023-04-17T06:07:25.102Z,98307.38
2023-04-17T06:09:58.237Z,98312.72
2023-04-17T06:12:31.315Z,98314.50
2023-04-17T06:15:04.823Z,98310.19
2023-04-17T06:17:40.862Z,98309.50
2023-04-17T06:20:14.432Z,98314.72
2023-04-17T06:22:47.752Z,98316.41
2023-04-17T06:25:20.779Z,98315.63
2023-04-17T06:27:53.830Z,98313.94
2023-04-17T06:30:26.866Z,98324.25
2023-04-17T06:33:01.372Z,98318.50
2023-04-17T06:35:35.132Z,98321.13
2023-04-17T06:38:08.992Z,98321.13
2023-04-17T06:40:42.061Z,98318.03
2023-04-17T06:43:17.080Z,98321.78
2023-04-17T06:45:50.173Z,98322.78
2023-04-17T06:48:24.690Z,98320.69
2023-04-17T06:50:58.017Z,98321.03
2023-04-17T06:53:31.085Z,98321.13
2023-04-17T06:56:04.575Z,98323.19
2023-04-17T06:58:43.852Z,98326.44
2023-04-17T07:01:16.989Z,98324.53
2023-04-17T07:03:51.546Z,98324.31
2023-04-17T07:06:25.160Z,98332.44
2023-04-17T07:08:58.159Z,98326.88
2023-04-17T07:11:31.713Z,98338.38
2023-04-17T07:14:04.891Z,98337.03
2023-04-17T07:16:37.932Z,98334.78
2023-04-17T07:19:12.607Z,98334.13
2023-04-17T07:21:45.940Z,98345.53
2023-04-17T07:24:18.963Z,98347.66
2023-04-17T07:26:52.073Z,98341.03
2023-04-17T07:29:25.167Z,98344.53
2023-04-17T07:31:58.395Z,98345.75
2023-04-17T07:34:34.396Z,98344.75
2023-04-17T07:37:07.605Z,98356.50
2023-04-17T07:39:40.638Z,98342.16
2023-04-17T07:42:13.640Z,98353.19
2023-04-17T07:44:47.363Z,98352.63
2023-04-17T07:47:20.701Z,98350.94
2023-04-17T07:49:55.130Z,98354.31
2023-04-17T07:52:28.398Z,98357.28
2023-04-17T07:55:01.421Z,98352.72
2023-04-17T07:57:34.484Z,98354.31
2023-04-17T08:00:10.736Z,98354.78
2023-04-17T08:02:44.685Z,98360.09
2023-04-17T08:05:19.608Z,98360.44
2023-04-17T08:07:52.727Z,98359.34
2023-04-17T08:10:26.002Z,98360.81
2023-04-17T08:12:59.232Z,98362.66
2023-04-17T08:15:32.735Z,98362.66
2023-04-17T08:18:05.895Z,98365.75
2023-04-17T08:20:40.667Z,98367.94
2023-04-17T08:23:13.733Z,98367.69
2023-04-17T08:25:46.902Z,98371.41
2023-04-17T08:28:19.963Z,98373.13
2023-04-17T08:30:53.083Z,98373.13
2023-04-17T08:33:27.128Z,98378.31
2023-04-17T08:36:03.621Z,98376.88
2023-04-17T08:38:37.404Z,98377.44
2023-04-17T08:41:14.397Z,98385.63
2023-04-17T08:43:50.864Z,98380.38
2023-04-17T08:46:25.059Z,98381.22
2023-04-17T08:48:58.236Z,98381.69
2023-04-17T08:51:32.735Z,98378.91
2023-04-17T08:54:06.206Z,98387.47
2023-04-17T08:56:39.248Z,98382.94
2023-04-17T08:59:12.671Z,98383.34
2023-04-17T09:02:02.263Z,98391.28
2023-04-17T09:04:41.891Z,98383.06
2023-04-17T09:07:16.696Z,98375.66
2023-04-17T09:09:54.459Z,98381.63
2023-04-17T09:12:28.087Z,98377.00
2023-04-17T09:15:01.153Z,98381.44
2023-04-17T09:17:37.831Z,98387.72
2023-04-17T09:20:12.806Z,98388.78
2023-04-17T09:22:47.234Z,98390.19
2023-04-17T09:25:23.209Z,98389.13
2023-04-17T09:28:03.122Z,98392.91
2023-04-17T09:30:38.996Z,98391.97
2023-04-17T09:33:12.882Z,98393.09
2023-04-17T09:35:46.202Z,98389.59
2023-04-17T09:38:38.411Z,98394.09
2023-04-17T09:41:24.384Z,98386.66
2023-04-17T09:44:01.694Z,98388.53
2023-04-17T09:46:38.386Z,98393.53
2023-04-17T09:49:19.100Z,98390.09
2023-04-17T09:51:52.382Z,98391.97
2023-04-17T09:54:31.281Z,98387.38
2023-04-17T09:57:04.828Z,98396.59
2023-04-17T09:59:40.750Z,98393.91
2023-04-17T10:02:15.283Z,98394.03
2023-04-17T10:04:48.994Z,98392.75
2023-04-17T10:07:22.035Z,98390.56
2023-04-17T10:09:56.670Z,98391.53
2023-04-17T10:12:29.798Z,98389.47
2023-04-17T10:15:05.015Z,98384.94
2023-04-17T10:17:38.198Z,98390.13
2023-04-17T10:20:38.146Z,98381.28
2023-04-17T10:23:32.406Z,98372.91
2023-04-17T10:26:39.883Z,98374.38
2023-04-17T10:29:13.275Z,98371.53
2023-04-17T10:32:25.993Z,98370.63
2023-04-17T10:35:00.840Z,98370.16
2023-04-17T10:38:06.856Z,98361.91
2023-04-17T10:40:40.915Z,98357.09
2023-04-17T10:43:19.763Z,98363.31
2023-04-17T10:45:55.365Z,98359.06
2023-04-17T10:48:31.063Z,98356.78
2023-04-17T10:51:44.520Z,98357.31
2023-04-17T10:54:17.664Z,98353.88
2023-04-17T10:56:55.868Z,98348.63
2023-04-17T10:59:30.292Z,98355.81
2023-04-17T11:02:04.803Z,98349.16
2023-04-17T11:04:38.203Z,98350.41
2023-04-17T11:07:13.899Z,98345.88
2023-04-17T11:09:53.004Z,98341.78
2023-04-17T11:12:26.211Z,98344.75
2023-04-17T11:15:03.884Z,98348.63
2023-04-17T11:17:40.129Z,98347.31
2023-04-17T11:20:14.226Z,98340.50
2023-04-17T11:22:49.122Z,98333.44
2023-04-17T11:25:24.223Z,98337.78
2023-04-17T11:27:58.259Z,98336.19
2023-04-17T11:30:33.942Z,98339.25
2023-04-17T11:33:08.474Z,98336.69
2023-04-17T11:35:46.401Z,98338.19
2023-04-17T11:38:23.738Z,98326.91
2023-04-17T11:40:59.039Z,98332.38
2023-04-17T11:43:37.154Z,98329.28
2023-04-17T11:46:10.269Z,98333.09
2023-04-17T11:48:43.452Z,98338.56
2023-04-17T11:51:19.373Z,98335.66
2023-04-17T11:53:53.750Z,98337.22
2023-04-17T11:56:29.484Z,98341.31
2023-04-17T11:59:04.932Z,98337.34
2023-04-17T12:01:53.514Z,98341.25
2023-04-17T12:04:26.920Z,98333.78
2023-04-17T12:07:00.456Z,98342.84
2023-04-17T12:09:35.563Z,98343.56
2023-04-17T12:12:09.516Z,98343.63
2023-04-17T12:14:42.530Z,98345.72
2023-04-17T12:17:15.654Z,98348.44
2023-04-17T12:19:48.702Z,98354.75
2023-04-17T12:22:21.754Z,98351.00
2023-04-17T12:24:56.242Z,98352.56
2023-04-17T12:27:29.226Z,98354.16
2023-04-17T12:30:02.257Z,98348.34
2023-04-17T12:32:35.321Z,98353.56
2023-04-17T12:35:09.099Z,98343.13
2023-04-17T12:37:42.426Z,98346.16
2023-04-17T12:40:17.814Z,98335.41
2023-04-17T12:42:51.027Z,98338.53
2023-04-17T12:45:24.145Z,98335.81
2023-04-17T12:47:57.247Z,98337.16
2023-04-17T12:50:30.392Z,98335.78
2023-04-17T12:53:03.396Z,98329.84
2023-04-17T12:55:38.902Z,98335.16
2023-04-17T12:58:13.687Z,98330.66
2023-04-17T13:00:46.807Z,98324.19
2023-04-17T13:03:20.005Z,98329.72
2023-04-17T13:05:53.384Z,98322.25
2023-04-17T13:08:26.522Z,98329.81
2023-04-17T13:11:03.607Z,98327.81
2023-04-17T13:13:36.673Z,98324.00
2023-04-17T13:16:11.524Z,98333.47
2023-04-17T13:18:44.596Z,98329.44
2023-04-17T13:21:17.646Z,98328.41
2023-04-17T13:23:50.802Z,98323.81
2023-04-17T13:26:25.284Z,98322.00
2023-04-17T13:28:58.360Z,98322.66
2023-04-17T13:31:31.399Z,98313.28
2023-04-17T13:34:04.822Z,98309.22
2023-04-17T13:36:37.871Z,98314.34
2023-04-17T13:39:11.078Z,98314.00
2023-04-17T13:41:45.780Z,98315.59
2023-04-17T13:44:18.883Z,98323.72
2023-04-17T13:46:52.716Z,98315.78
2023-04-17T13:49:27.063Z,98306.53
2023-04-17T13:52:00.096Z,98317.47
2023-04-17T13:54:33.106Z,98320.31
2023-04-17T13:57:08.218Z,98311.34
2023-04-17T13:59:41.226Z,98313.81
2023-04-17T14:02:14.441Z,98309.63
2023-04-17T14:04:47.852Z,98306.66
2023-04-17T14:07:21.076Z,98299.56
2023-04-17T14:09:54.113Z,98293.31
2023-04-17T14:12:28.507Z,98301.03
2023-04-17T14:15:01.524Z,98304.41
2023-04-17T14:20:12.458Z,98302.22
2023-04-17T14:22:45.771Z,98301.00
2023-04-17T14:25:18.792Z,98296.28
2023-04-17T14:27:53.682Z,98300.88
2023-04-17T14:30:26.699Z,98299.75
2023-04-17T14:32:59.786Z,98292.25
2023-04-17T14:35:33.442Z,98296.41
2023-04-17T14:38:06.547Z,98289.41
2023-04-17T14:40:39.604Z,98288.13
2023-04-17T14:43:14.021Z,98290.06
2023-04-17T14:45:47.092Z,98291.88
2023-04-17T14:48:20.857Z,98287.34
2023-04-17T14:50:53.887Z,98288.31
2023-04-17T14:53:26.952Z,98289.72
2023-04-17T14:56:00.285Z,98285.22
2023-04-17T14:58:34.741Z,98286.81
2023-04-17T15:01:07.829Z,98283.44
2023-04-17T15:03:41.570Z,98291.47
2023-04-17T15:06:15.661Z,98289.25
2023-04-17T15:08:48.694Z,98299.97
2023-04-17T15:11:21.930Z,98290.97
2023-04-17T15:13:56.284Z,98282.72
2023-04-17T15:16:29.672Z,98289.50
2023-04-17T15:19:02.761Z,98291.69
2023-04-17T15:21:35.810Z,98292.16
2023-04-17T15:24:08.940Z,98289.78
2023-04-17T15:26:43.996Z,98298.63
2023-04-17T15:29:19.540Z,98296.84
2023-04-17T15:31:53.360Z,98289.53
2023-04-17T15:34:26.492Z,98290.22
2023-04-17T15:36:59.518Z,98283.50
2023-04-17T15:39:32.827Z,98284.66
2023-04-17T15:42:08.496Z,98285.34
2023-04-17T15:44:42.868Z,98286.31
2023-04-17T15:47:16.166Z,98279.53
2023-04-17T15:49:49.381Z,98281.13
2023-04-17T15:52:22.412Z,98282.44
2023-04-17T15:54:55.455Z,98284.81
2023-04-17T15:57:28.489Z,98280.72
2023-04-17T16:00:02.885Z,98282.16
2023-04-17T16:02:36.045Z,98279.97
2023-04-17T16:05:09.958Z,98282.72
2023-04-17T16:07:42.989Z,98278.81
2023-04-17T16:10:16.085Z,98281.44
2023-04-17T16:12:49.138Z,98279.41
2023-04-17T16:15:23.829Z,98288.13
2023-04-17T16:17:56.893Z,98279.72
2023-04-17T16:20:30.654Z,98287.66
2023-04-17T16:23:04.450Z,98281.56
2023-04-17T16:25:37.520Z,98281.22
2023-04-17T16:28:10.531Z,98289.53
2023-04-17T16:30:44.961Z,98285.69
2023-04-17T16:33:17.991Z,98293.06
2023-04-17T16:35:51.090Z,98284.19
2023-04-17T16:38:24.123Z,98293.94
2023-04-17T16:40:58.868Z,98292.44
2023-04-17T16:43:32.136Z,98283.34
2023-04-17T16:46:18.472Z,98288.81
2023-04-17T16:48:55.998Z,98288.47
2023-04-17T16:51:29.146Z,98292.25
2023-04-17T16:54:02.350Z,98294.91
2023-04-17T16:56:35.528Z,98298.81
2023-04-17T16:59:08.795Z,98305.13
2023-04-17T17:01:43.410Z,98316.31
2023-04-17T17:04:16.822Z,98312.75
2023-04-17T17:06:49.935Z,98317.91
2023-04-17T17:09:23.268Z,98316.28
2023-04-17T17:11:56.781Z,98316.59
2023-04-17T17:14:29.886Z,98313.16
2023-04-17T17:17:04.276Z,98322.31
2023-04-17T17:19:37.294Z,98315.31
2023-04-17T17:22:10.685Z,98323.59
2023-04-17T17:24:43.680Z,98318.91
2023-04-17T17:27:16.739Z,98317.66
2023-04-17T17:29:50.828Z,98320.63
2023-04-17T17:32:25.419Z,98330.41
2023-04-17T17:34:59.371Z,98327.38
2023-04-17T17:37:32.377Z,98327.19
2023-04-17T17:40:06.974Z,98326.19
2023-04-17T17:42:39.985Z,98326.38
2023-04-17T17:45:13.164Z,98330.31
2023-04-17T17:47:47.608Z,98326.19
2023-04-17T17:50:20.736Z,98329.03
2023-04-17T17:52:53.720Z,98323.47
2023-04-17T17:55:26.711Z,98329.66
2023-04-17T17:57:59.721Z,98339.19
2023-04-17T18:00:32.847Z,98335.25
2023-04-17T18:03:07.278Z,98338.13
2023-04-17T18:05:40.351Z,98338.63
2023-04-17T18:08:13.560Z,98340.97
2023-04-17T18:10:46.553Z,98334.66
2023-04-17T18:13:19.541Z,98337.59
2023-04-17T18:15:52.658Z,98337.63
2023-04-17T18:18:27.085Z,98339.31
2023-04-17T18:21:00.123Z,98338.59
2023-04-17T18:23:33.115Z,98345.63
2023-04-17T18:26:06.477Z,98341.13
2023-04-17T18:28:39.482Z,98350.38
2023-04-17T18:31:12.552Z,98347.44
2023-04-17T18:33:47.018Z,98349.94
2023-04-17T18:36:20.116Z,98355.91
2023-04-17T18:38:53.114Z,98353.91
2023-04-17T18:41:27.250Z,98359.03
2023-04-17T18:44:00.774Z,98364.59
2023-04-17T18:46:34.001Z,98370.38
2023-04-17T18:49:08.816Z,98365.47
2023-04-17T18:51:47.610Z,98371.41
2023-04-17T18:54:20.828Z,98377.59
2023-04-17T18:56:53.904Z,98374.16
2023-04-17T18:59:28.055Z,98375.03
2023-04-17T19:02:01.077Z,98373.69
2023-04-17T19:04:35.470Z,98379.72
2023-04-17T19:07:08.473Z,98376.53
2023-04-17T19:09:41.483Z,98378.00
2023-04-17T19:12:14.472Z,98385.81
2023-04-17T19:14:47.492Z,98386.44
2023-04-17T19:17:20.512Z,98384.69
2023-04-17T19:19:54.846Z,98385.56
2023-04-17T19:22:27.873Z,98386.19
2023-04-17T19:25:00.878Z,98372.97
2023-04-17T19:27:34.055Z,98388.38
2023-04-17T19:30:10.399Z,98375.72
2023-04-17T19:32:43.474Z,98377.50
2023-04-17T19:35:18.039Z,98375.06
2023-04-17T19:37:51.042Z,98383.31
2023-04-17T19:40:25.472Z,98378.03
2023-04-17T19:43:01.317Z,98383.09
2023-04-17T19:45:35.876Z,98379.22
2023-04-17T19:48:09.020Z,98375.31
2023-04-17T19:50:43.420Z,98376.66
2023-04-17T19:53:16.413Z,98380.47
2023-04-17T19:55:50.034Z,98377.78
2023-04-17T19:58:23.065Z,98378.38
2023-04-17T20:00:56.161Z,98378.53
2023-04-17T20:03:31.777Z,98373.44
2023-04-17T20:06:06.416Z,98373.09
2023-04-17T20:08:39.433Z,98362.06
2023-04-17T20:11:12.791Z,98368.91
2023-04-17T20:13:47.552Z,98370.22
2023-04-17T20:16:20.618Z,98368.56
2023-04-17T20:18:56.422Z,98363.69
2023-04-17T20:21:30.949Z,98371.00
2023-04-17T20:24:04.212Z,98365.88
2023-04-17T20:26:37.613Z,98368.09
2023-04-17T20:29:10.989Z,98382.41
2023-04-17T20:31:44.145Z,98377.88
2023-04-17T20:34:18.095Z,98375.69
2023-04-17T20:36:52.473Z,98375.44
2023-04-17T20:39:25.691Z,98372.44
2023-04-17T20:41:58.706Z,98375.78
2023-04-17T20:44:33.009Z,98371.63
2023-04-17T20:47:06.091Z,98375.44
2023-04-17T20:49:39.403Z,98370.13
2023-04-17T20:52:13.756Z,98369.03
2023-04-17T20:54:46.772Z,98365.06
2023-04-17T20:57:20.003Z,98362.97
2023-04-17T20:59:53.026Z,98363.84
2023-04-17T21:02:26.210Z,98363.19
2023-04-17T21:04:59.295Z,98358.84
2023-04-17T21:07:33.685Z,98355.53
2023-04-17T21:10:07.991Z,98352.75
2023-04-17T21:12:41.388Z,98356.06
2023-04-17T21:15:14.423Z,98344.44
2023-04-17T21:17:47.964Z,98358.19
2023-04-17T21:20:21.151Z,98350.13
2023-04-17T21:22:55.499Z,98353.34
2023-04-17T21:25:28.761Z,98353.69
2023-04-17T21:28:01.801Z,98358.81
2023-04-17T21:30:34.859Z,98353.41
2023-04-17T21:33:08.021Z,98354.66
2023-04-17T21:35:41.089Z,98350.63
2023-04-17T21:38:15.483Z,98353.81
2023-04-17T21:40:51.744Z,98353.50
2023-04-17T21:43:24.881Z,98350.41
2023-04-17T21:45:57.955Z,98352.31
2023-04-17T21:48:31.004Z,98348.88
2023-04-17T21:51:05.415Z,98353.50
2023-04-17T21:53:39.801Z,98354.31
2023-04-17T21:56:13.395Z,98351.97
2023-04-17T21:58:46.417Z,98353.53
2023-04-17T22:01:19.547Z,98355.41
2023-04-17T22:03:52.617Z,98345.66
2023-04-17T22:06:26.150Z,98347.09
2023-04-17T22:09:01.395Z,98345.66
2023-04-17T22:11:34.416Z,98349.56
2023-04-17T22:14:07.503Z,98344.44
2023-04-17T22:16:40.759Z,98335.59
2023-04-17T22:19:13.828Z,98337.03
2023-04-17T22:21:46.834Z,98338.44
2023-04-17T22:24:21.268Z,98329.09
2023-04-17T22:26:54.528Z,98338.22
2023-04-17T22:29:27.580Z,98336.78
2023-04-17T22:32:00.623Z,98342.00
2023-04-17T22:34:33.632Z,98340.47
2023-04-17T22:37:06.644Z,98338.25
2023-04-17T22:39:41.031Z,98343.53
2023-04-17T22:42:14.042Z,98340.13
2023-04-17T22:44:47.864Z,98337.78
2023-04-17T22:47:22.805Z,98336.94
2023-04-17T22:49:56.748Z,98340.00
2023-04-17T22:52:29.836Z,98340.22
2023-04-17T22:55:05.328Z,98340.56
2023-04-17T22:57:38.459Z,98336.59
2023-04-17T23:00:12.803Z,98333.38
2023-04-17T23:02:45.935Z,98338.91
2023-04-17T23:05:19.326Z,98324.25
2023-04-17T23:07:52.581Z,98339.31
2023-04-17T23:10:27.005Z,98332.69
2023-04-17T23:13:00.047Z,98334.88
2023-04-17T23:15:34.024Z,98329.34
2023-04-17T23:18:07.252Z,98333.34
2023-04-17T23:20:40.382Z,98337.19
2023-04-17T23:23:13.537Z,98336.41
2023-04-17T23:25:48.056Z,98340.16
2023-04-17T23:28:21.061Z,98337.16
2023-04-17T23:30:54.161Z,98331.84
2023-04-17T23:33:27.157Z,98334.69
2023-04-17T23:36:00.386Z,98331.94
2023-04-17T23:38:33.465Z,98329.38
2023-04-17T23:41:07.923Z,98331.94
2023-04-17T23:43:41.121Z,98327.53
2023-04-17T23:46:14.171Z,98325.84
2023-04-17T23:48:47.240Z,98325.50
2023-04-17T23:51:20.853Z,98326.16
2023-04-17T23:53:54.419Z,98323.53
2023-04-17T23:56:30.256Z,98317.78
2023-04-17T23:59:03.286Z,98324.63
